sensor_id;sensor_type;location;lat;lon;timestamp;P1;durP1;ratioP1;P2;durP2;ratioP2
72635;SDS011;60679;48.888;15.544;2023-09-08T00:00:29;6.43;;;2.03;;
72635;SDS011;60679;48.888;15.544;2023-09-08T00:02:55;4.83;;;1.87;;
72635;SDS011;60679;48.888;15.544;2023-09-08T00:05:20;5.38;;;2.38;;
72635;SDS011;60679;48.888;15.544;2023-09-08T00:07:45;5.70;;;2.00;;
72635;SDS011;60679;48.888;15.544;2023-09-08T00:10:11;4.80;;;2.00;;
72635;SDS011;60679;48.888;15.544;2023-09-08T00:12:37;5.47;;;1.98;;
72635;SDS011;60679;48.888;15.544;2023-09-08T00:15:03;5.77;;;2.23;;
72635;SDS011;60679;48.888;15.544;2023-09-08T00:17:28;6.00;;;2.00;;
72635;SDS011;60679;48.888;15.544;2023-09-08T00:19:54;7.40;;;2.53;;
72635;SDS011;60679;48.888;15.544;2023-09-08T00:22:21;8.68;;;2.40;;
72635;SDS011;60679;48.888;15.544;2023-09-08T00:24:46;5.67;;;2.23;;
72635;SDS011;60679;48.888;15.544;2023-09-08T00:27:12;6.27;;;1.97;;
72635;SDS011;60679;48.888;15.544;2023-09-08T00:29:37;7.10;;;2.13;;
72635;SDS011;60679;48.888;15.544;2023-09-08T00:32:03;9.37;;;2.80;;
72635;SDS011;60679;48.888;15.544;2023-09-08T00:34:28;4.93;;;1.93;;
72635;SDS011;60679;48.888;15.544;2023-09-08T00:36:53;5.67;;;2.37;;
72635;SDS011;60679;48.888;15.544;2023-09-08T00:39:19;6.17;;;1.83;;
72635;SDS011;60679;48.888;15.544;2023-09-08T00:41:44;5.03;;;2.05;;
72635;SDS011;60679;48.888;15.544;2023-09-08T00:44:10;6.57;;;2.57;;
72635;SDS011;60679;48.888;15.544;2023-09-08T00:46:36;7.90;;;2.08;;
72635;SDS011;60679;48.888;15.544;2023-09-08T00:49:02;8.73;;;2.33;;
72635;SDS011;60679;48.888;15.544;2023-09-08T00:51:28;7.95;;;2.40;;
72635;SDS011;60679;48.888;15.544;2023-09-08T00:53:53;6.23;;;1.90;;
72635;SDS011;60679;48.888;15.544;2023-09-08T00:56:19;6.53;;;2.70;;
72635;SDS011;60679;48.888;15.544;2023-09-08T00:58:45;6.07;;;2.60;;
72635;SDS011;60679;48.888;15.544;2023-09-08T01:01:11;7.53;;;1.92;;
72635;SDS011;60679;48.888;15.544;2023-09-08T01:03:37;7.75;;;2.72;;
72635;SDS011;60679;48.888;15.544;2023-09-08T01:06:03;7.27;;;2.70;;
72635;SDS011;60679;48.888;15.544;2023-09-08T01:08:29;9.13;;;3.00;;
72635;SDS011;60679;48.888;15.544;2023-09-08T01:10:55;7.23;;;2.30;;
72635;SDS011;60679;48.888;15.544;2023-09-08T01:13:21;6.07;;;2.30;;
72635;SDS011;60679;48.888;15.544;2023-09-08T01:15:47;6.37;;;2.23;;
72635;SDS011;60679;48.888;15.544;2023-09-08T01:18:13;6.57;;;2.03;;
72635;SDS011;60679;48.888;15.544;2023-09-08T01:26:35;5.43;;;2.55;;
72635;SDS011;60679;48.888;15.544;2023-09-08T01:29:06;6.75;;;3.28;;
72635;SDS011;60679;48.888;15.544;2023-09-08T01:31:33;10.63;;;2.90;;
72635;SDS011;60679;48.888;15.544;2023-09-08T01:33:59;6.73;;;2.47;;
72635;SDS011;60679;48.888;15.544;2023-09-08T01:36:26;7.47;;;2.85;;
72635;SDS011;60679;48.888;15.544;2023-09-08T01:38:52;6.77;;;2.70;;
72635;SDS011;60679;48.888;15.544;2023-09-08T01:41:17;21.90;;;2.83;;
72635;SDS011;60679;48.888;15.544;2023-09-08T01:43:43;6.25;;;2.45;;
72635;SDS011;60679;48.888;15.544;2023-09-08T01:46:08;6.23;;;2.70;;
72635;SDS011;60679;48.888;15.544;2023-09-08T01:48:33;5.10;;;2.20;;
72635;SDS011;60679;48.888;15.544;2023-09-08T01:50:59;6.40;;;2.63;;
72635;SDS011;60679;48.888;15.544;2023-09-08T01:53:24;7.67;;;2.60;;
72635;SDS011;60679;48.888;15.544;2023-09-08T01:55:49;5.77;;;2.50;;
72635;SDS011;60679;48.888;15.544;2023-09-08T01:58:15;6.57;;;2.00;;
72635;SDS011;60679;48.888;15.544;2023-09-08T02:00:40;5.35;;;2.35;;
72635;SDS011;60679;48.888;15.544;2023-09-08T02:03:10;6.43;;;3.07;;
72635;SDS011;60679;48.888;15.544;2023-09-08T02:05:35;7.18;;;2.50;;
72635;SDS011;60679;48.888;15.544;2023-09-08T02:08:04;6.53;;;2.53;;
72635;SDS011;60679;48.888;15.544;2023-09-08T02:10:30;7.00;;;2.13;;
72635;SDS011;60679;48.888;15.544;2023-09-08T02:12:55;5.57;;;2.30;;
72635;SDS011;60679;48.888;15.544;2023-09-08T02:15:20;5.10;;;1.98;;
72635;SDS011;60679;48.888;15.544;2023-09-08T02:17:46;5.63;;;2.63;;
72635;SDS011;60679;48.888;15.544;2023-09-08T02:20:23;8.93;;;2.17;;
72635;SDS011;60679;48.888;15.544;2023-09-08T02:22:49;5.80;;;2.07;;
72635;SDS011;60679;48.888;15.544;2023-09-08T02:25:19;5.70;;;2.22;;
72635;SDS011;60679;48.888;15.544;2023-09-08T02:27:44;6.87;;;2.90;;
72635;SDS011;60679;48.888;15.544;2023-09-08T02:30:10;5.10;;;2.10;;
72635;SDS011;60679;48.888;15.544;2023-09-08T02:32:35;8.33;;;2.73;;
72635;SDS011;60679;48.888;15.544;2023-09-08T02:35:01;7.43;;;2.67;;
72635;SDS011;60679;48.888;15.544;2023-09-08T02:37:26;4.47;;;1.97;;
72635;SDS011;60679;48.888;15.544;2023-09-08T02:39:52;6.20;;;2.50;;
72635;SDS011;60679;48.888;15.544;2023-09-08T02:42:17;13.93;;;2.10;;
72635;SDS011;60679;48.888;15.544;2023-09-08T02:44:42;6.53;;;2.40;;
72635;SDS011;60679;48.888;15.544;2023-09-08T02:47:08;7.13;;;3.60;;
72635;SDS011;60679;48.888;15.544;2023-09-08T02:49:35;6.43;;;2.53;;
72635;SDS011;60679;48.888;15.544;2023-09-08T02:52:00;12.17;;;3.07;;
72635;SDS011;60679;48.888;15.544;2023-09-08T02:54:26;6.93;;;2.57;;
72635;SDS011;60679;48.888;15.544;2023-09-08T02:56:51;5.93;;;2.63;;
72635;SDS011;60679;48.888;15.544;2023-09-08T02:59:17;5.93;;;2.47;;
72635;SDS011;60679;48.888;15.544;2023-09-08T03:01:42;5.73;;;2.07;;
72635;SDS011;60679;48.888;15.544;2023-09-08T03:04:07;7.50;;;2.90;;
72635;SDS011;60679;48.888;15.544;2023-09-08T03:06:34;7.80;;;2.70;;
72635;SDS011;60679;48.888;15.544;2023-09-08T03:08:59;6.65;;;3.13;;
72635;SDS011;60679;48.888;15.544;2023-09-08T03:11:25;8.20;;;2.63;;
72635;SDS011;60679;48.888;15.544;2023-09-08T03:13:50;7.55;;;3.10;;
72635;SDS011;60679;48.888;15.544;2023-09-08T03:16:16;5.93;;;2.70;;
72635;SDS011;60679;48.888;15.544;2023-09-08T03:18:41;6.13;;;2.33;;
72635;SDS011;60679;48.888;15.544;2023-09-08T03:21:07;5.22;;;2.38;;
72635;SDS011;60679;48.888;15.544;2023-09-08T03:23:39;5.77;;;1.90;;
72635;SDS011;60679;48.888;15.544;2023-09-08T03:26:06;6.85;;;3.55;;
72635;SDS011;60679;48.888;15.544;2023-09-08T03:28:33;6.28;;;2.80;;
72635;SDS011;60679;48.888;15.544;2023-09-08T03:31:00;7.75;;;2.38;;
72635;SDS011;60679;48.888;15.544;2023-09-08T03:33:26;8.93;;;3.58;;
72635;SDS011;60679;48.888;15.544;2023-09-08T03:35:52;7.80;;;2.80;;
72635;SDS011;60679;48.888;15.544;2023-09-08T03:38:17;7.60;;;2.53;;
72635;SDS011;60679;48.888;15.544;2023-09-08T03:40:43;6.87;;;3.40;;
72635;SDS011;60679;48.888;15.544;2023-09-08T03:43:08;7.70;;;2.78;;
72635;SDS011;60679;48.888;15.544;2023-09-08T03:45:33;6.77;;;2.77;;
72635;SDS011;60679;48.888;15.544;2023-09-08T03:47:59;8.00;;;3.27;;
72635;SDS011;60679;48.888;15.544;2023-09-08T03:50:25;6.63;;;3.10;;
72635;SDS011;60679;48.888;15.544;2023-09-08T03:52:50;8.23;;;2.67;;
72635;SDS011;60679;48.888;15.544;2023-09-08T03:55:16;8.60;;;3.60;;
72635;SDS011;60679;48.888;15.544;2023-09-08T03:57:42;6.70;;;3.20;;
72635;SDS011;60679;48.888;15.544;2023-09-08T04:00:08;8.43;;;3.77;;
72635;SDS011;60679;48.888;15.544;2023-09-08T04:02:35;8.75;;;3.13;;
72635;SDS011;60679;48.888;15.544;2023-09-08T04:05:01;30.95;;;8.07;;
72635;SDS011;60679;48.888;15.544;2023-09-08T04:07:26;25.23;;;6.47;;
72635;SDS011;60679;48.888;15.544;2023-09-08T04:09:52;14.57;;;5.30;;
72635;SDS011;60679;48.888;15.544;2023-09-08T04:12:17;15.57;;;5.27;;
72635;SDS011;60679;48.888;15.544;2023-09-08T04:14:43;14.05;;;4.25;;
72635;SDS011;60679;48.888;15.544;2023-09-08T04:17:08;21.30;;;4.43;;
72635;SDS011;60679;48.888;15.544;2023-09-08T04:19:33;10.17;;;4.27;;
72635;SDS011;60679;48.888;15.544;2023-09-08T04:21:59;50.83;;;9.07;;
72635;SDS011;60679;48.888;15.544;2023-09-08T04:24:24;12.17;;;5.83;;
72635;SDS011;60679;48.888;15.544;2023-09-08T04:26:50;18.07;;;4.43;;
72635;SDS011;60679;48.888;15.544;2023-09-08T04:29:15;8.38;;;3.92;;
72635;SDS011;60679;48.888;15.544;2023-09-08T04:31:40;9.40;;;3.53;;
72635;SDS011;60679;48.888;15.544;2023-09-08T04:34:06;7.97;;;3.87;;
72635;SDS011;60679;48.888;15.544;2023-09-08T04:36:31;9.87;;;4.07;;
72635;SDS011;60679;48.888;15.544;2023-09-08T04:38:56;9.37;;;3.50;;
72635;SDS011;60679;48.888;15.544;2023-09-08T04:41:22;7.17;;;3.23;;
72635;SDS011;60679;48.888;15.544;2023-09-08T04:43:47;8.23;;;3.53;;
72635;SDS011;60679;48.888;15.544;2023-09-08T04:46:13;8.17;;;4.03;;
72635;SDS011;60679;48.888;15.544;2023-09-08T04:48:38;10.93;;;4.63;;
72635;SDS011;60679;48.888;15.544;2023-09-08T04:51:04;9.48;;;2.92;;
72635;SDS011;60679;48.888;15.544;2023-09-08T04:53:29;21.77;;;3.97;;
72635;SDS011;60679;48.888;15.544;2023-09-08T04:55:55;6.57;;;3.43;;
72635;SDS011;60679;48.888;15.544;2023-09-08T04:58:20;8.97;;;3.13;;
72635;SDS011;60679;48.888;15.544;2023-09-08T05:00:46;8.38;;;3.35;;
72635;SDS011;60679;48.888;15.544;2023-09-08T05:03:11;6.63;;;3.47;;
72635;SDS011;60679;48.888;15.544;2023-09-08T05:05:37;9.73;;;4.20;;
72635;SDS011;60679;48.888;15.544;2023-09-08T05:08:03;5.57;;;2.63;;
72635;SDS011;60679;48.888;15.544;2023-09-08T05:10:29;8.25;;;3.63;;
72635;SDS011;60679;48.888;15.544;2023-09-08T05:12:54;5.33;;;2.10;;
72635;SDS011;60679;48.888;15.544;2023-09-08T05:15:20;6.53;;;3.27;;
72635;SDS011;60679;48.888;15.544;2023-09-08T05:17:46;6.80;;;2.33;;
72635;SDS011;60679;48.888;15.544;2023-09-08T05:20:12;8.23;;;3.27;;
72635;SDS011;60679;48.888;15.544;2023-09-08T05:22:37;7.07;;;3.13;;
72635;SDS011;60679;48.888;15.544;2023-09-08T05:25:03;5.80;;;2.73;;
72635;SDS011;60679;48.888;15.544;2023-09-08T05:27:29;7.45;;;3.63;;
72635;SDS011;60679;48.888;15.544;2023-09-08T05:29:54;7.70;;;3.27;;
72635;SDS011;60679;48.888;15.544;2023-09-08T05:32:20;8.10;;;3.33;;
72635;SDS011;60679;48.888;15.544;2023-09-08T05:34:45;9.60;;;3.77;;
72635;SDS011;60679;48.888;15.544;2023-09-08T05:37:10;11.67;;;3.20;;
72635;SDS011;60679;48.888;15.544;2023-09-08T05:39:36;11.47;;;3.23;;
72635;SDS011;60679;48.888;15.544;2023-09-08T05:42:01;7.17;;;2.77;;
72635;SDS011;60679;48.888;15.544;2023-09-08T05:44:27;6.60;;;2.80;;
72635;SDS011;60679;48.888;15.544;2023-09-08T05:46:52;7.68;;;2.92;;
72635;SDS011;60679;48.888;15.544;2023-09-08T05:49:18;6.63;;;2.43;;
72635;SDS011;60679;48.888;15.544;2023-09-08T05:51:43;7.90;;;3.07;;
72635;SDS011;60679;48.888;15.544;2023-09-08T05:54:09;6.78;;;2.05;;
72635;SDS011;60679;48.888;15.544;2023-09-08T05:56:36;7.70;;;2.73;;
72635;SDS011;60679;48.888;15.544;2023-09-08T05:59:02;6.53;;;2.70;;
72635;SDS011;60679;48.888;15.544;2023-09-08T06:01:27;6.67;;;2.87;;
72635;SDS011;60679;48.888;15.544;2023-09-08T06:03:53;6.75;;;2.85;;
72635;SDS011;60679;48.888;15.544;2023-09-08T06:06:19;6.13;;;2.38;;
72635;SDS011;60679;48.888;15.544;2023-09-08T06:08:46;7.57;;;2.97;;
72635;SDS011;60679;48.888;15.544;2023-09-08T06:11:12;5.43;;;2.60;;
72635;SDS011;60679;48.888;15.544;2023-09-08T06:13:37;6.10;;;1.85;;
72635;SDS011;60679;48.888;15.544;2023-09-08T06:16:03;4.83;;;2.43;;
72635;SDS011;60679;48.888;15.544;2023-09-08T06:18:28;7.67;;;2.17;;
72635;SDS011;60679;48.888;15.544;2023-09-08T06:20:55;16.67;;;2.70;;
72635;SDS011;60679;48.888;15.544;2023-09-08T06:23:21;4.93;;;1.73;;
72635;SDS011;60679;48.888;15.544;2023-09-08T06:25:46;10.15;;;2.05;;
72635;SDS011;60679;48.888;15.544;2023-09-08T06:28:12;8.07;;;3.13;;
72635;SDS011;60679;48.888;15.544;2023-09-08T06:30:37;7.70;;;2.63;;
72635;SDS011;60679;48.888;15.544;2023-09-08T06:33:06;5.63;;;2.58;;
72635;SDS011;60679;48.888;15.544;2023-09-08T06:35:34;5.78;;;2.70;;
72635;SDS011;60679;48.888;15.544;2023-09-08T06:38:00;5.60;;;2.23;;
72635;SDS011;60679;48.888;15.544;2023-09-08T06:40:25;4.83;;;2.33;;
72635;SDS011;60679;48.888;15.544;2023-09-08T06:42:51;5.35;;;2.13;;
72635;SDS011;60679;48.888;15.544;2023-09-08T06:45:17;5.30;;;2.63;;
72635;SDS011;60679;48.888;15.544;2023-09-08T06:47:43;6.65;;;2.42;;
72635;SDS011;60679;48.888;15.544;2023-09-08T06:50:09;4.50;;;1.90;;
72635;SDS011;60679;48.888;15.544;2023-09-08T06:52:35;6.22;;;2.50;;
72635;SDS011;60679;48.888;15.544;2023-09-08T06:55:01;6.43;;;2.22;;
72635;SDS011;60679;48.888;15.544;2023-09-08T06:57:26;5.93;;;2.60;;
72635;SDS011;60679;48.888;15.544;2023-09-08T06:59:51;5.53;;;2.70;;
72635;SDS011;60679;48.888;15.544;2023-09-08T07:02:17;6.53;;;2.35;;
72635;SDS011;60679;48.888;15.544;2023-09-08T07:04:42;7.33;;;2.10;;
72635;SDS011;60679;48.888;15.544;2023-09-08T07:07:08;5.43;;;1.60;;
72635;SDS011;60679;48.888;15.544;2023-09-08T07:09:34;5.90;;;1.92;;
72635;SDS011;60679;48.888;15.544;2023-09-08T07:12:01;5.67;;;2.00;;
72635;SDS011;60679;48.888;15.544;2023-09-08T07:14:26;6.45;;;2.58;;
72635;SDS011;60679;48.888;15.544;2023-09-08T07:16:51;5.93;;;2.30;;
72635;SDS011;60679;48.888;15.544;2023-09-08T07:19:17;9.20;;;2.37;;
72635;SDS011;60679;48.888;15.544;2023-09-08T07:21:42;6.73;;;2.43;;
72635;SDS011;60679;48.888;15.544;2023-09-08T07:24:08;5.32;;;2.22;;
72635;SDS011;60679;48.888;15.544;2023-09-08T07:26:33;4.90;;;2.10;;
72635;SDS011;60679;48.888;15.544;2023-09-08T07:28:59;5.70;;;2.07;;
72635;SDS011;60679;48.888;15.544;2023-09-08T07:31:24;6.33;;;2.53;;
72635;SDS011;60679;48.888;15.544;2023-09-08T07:33:50;5.97;;;1.93;;
72635;SDS011;60679;48.888;15.544;2023-09-08T07:36:15;5.43;;;2.20;;
72635;SDS011;60679;48.888;15.544;2023-09-08T07:38:40;5.70;;;2.00;;
72635;SDS011;60679;48.888;15.544;2023-09-08T07:41:06;5.23;;;1.90;;
72635;SDS011;60679;48.888;15.544;2023-09-08T07:43:31;5.63;;;2.35;;
72635;SDS011;60679;48.888;15.544;2023-09-08T07:45:57;4.80;;;1.90;;
72635;SDS011;60679;48.888;15.544;2023-09-08T07:48:22;4.77;;;1.73;;
72635;SDS011;60679;48.888;15.544;2023-09-08T07:50:47;9.37;;;2.23;;
72635;SDS011;60679;48.888;15.544;2023-09-08T07:53:13;8.27;;;2.97;;
72635;SDS011;60679;48.888;15.544;2023-09-08T07:55:38;4.75;;;2.00;;
72635;SDS011;60679;48.888;15.544;2023-09-08T07:58:04;4.37;;;2.03;;
72635;SDS011;60679;48.888;15.544;2023-09-08T08:00:30;5.47;;;1.83;;
72635;SDS011;60679;48.888;15.544;2023-09-08T08:02:56;4.78;;;1.80;;
72635;SDS011;60679;48.888;15.544;2023-09-08T08:05:23;5.57;;;2.28;;
72635;SDS011;60679;48.888;15.544;2023-09-08T08:07:49;5.75;;;2.13;;
72635;SDS011;60679;48.888;15.544;2023-09-08T08:10:15;6.03;;;2.20;;
72635;SDS011;60679;48.888;15.544;2023-09-08T08:12:41;7.50;;;2.13;;
72635;SDS011;60679;48.888;15.544;2023-09-08T08:15:07;5.68;;;2.17;;
72635;SDS011;60679;48.888;15.544;2023-09-08T08:17:37;8.43;;;2.53;;
72635;SDS011;60679;48.888;15.544;2023-09-08T08:20:04;6.47;;;2.50;;
72635;SDS011;60679;48.888;15.544;2023-09-08T08:22:34;5.63;;;2.42;;
72635;SDS011;60679;48.888;15.544;2023-09-08T08:25:03;6.10;;;2.33;;
72635;SDS011;60679;48.888;15.544;2023-09-08T08:27:29;5.72;;;2.50;;
72635;SDS011;60679;48.888;15.544;2023-09-08T08:29:56;3.83;;;1.30;;
72635;SDS011;60679;48.888;15.544;2023-09-08T08:32:24;7.95;;;2.22;;
72635;SDS011;60679;48.888;15.544;2023-09-08T08:34:50;6.72;;;2.45;;
72635;SDS011;60679;48.888;15.544;2023-09-08T08:37:16;6.60;;;2.58;;
72635;SDS011;60679;48.888;15.544;2023-09-08T08:39:42;6.17;;;2.57;;
72635;SDS011;60679;48.888;15.544;2023-09-08T08:42:07;6.40;;;2.77;;
72635;SDS011;60679;48.888;15.544;2023-09-08T08:44:34;5.25;;;2.25;;
72635;SDS011;60679;48.888;15.544;2023-09-08T08:47:02;5.93;;;2.38;;
72635;SDS011;60679;48.888;15.544;2023-09-08T08:49:28;6.82;;;2.00;;
72635;SDS011;60679;48.888;15.544;2023-09-08T08:51:56;5.72;;;2.40;;
72635;SDS011;60679;48.888;15.544;2023-09-08T08:54:23;5.67;;;2.37;;
72635;SDS011;60679;48.888;15.544;2023-09-08T08:56:50;6.15;;;2.10;;
72635;SDS011;60679;48.888;15.544;2023-09-08T08:59:16;11.50;;;2.30;;
72635;SDS011;60679;48.888;15.544;2023-09-08T09:01:42;5.73;;;2.60;;
72635;SDS011;60679;48.888;15.544;2023-09-08T09:04:07;5.90;;;2.33;;
72635;SDS011;60679;48.888;15.544;2023-09-08T09:06:34;5.28;;;2.35;;
72635;SDS011;60679;48.888;15.544;2023-09-08T09:09:00;7.83;;;2.23;;
72635;SDS011;60679;48.888;15.544;2023-09-08T09:11:26;5.32;;;2.10;;
72635;SDS011;60679;48.888;15.544;2023-09-08T09:13:52;5.28;;;2.20;;
72635;SDS011;60679;48.888;15.544;2023-09-08T09:16:17;5.60;;;2.60;;
72635;SDS011;60679;48.888;15.544;2023-09-08T09:18:59;5.57;;;2.40;;
72635;SDS011;60679;48.888;15.544;2023-09-08T09:21:40;5.85;;;2.00;;
72635;SDS011;60679;48.888;15.544;2023-09-08T09:24:07;5.00;;;2.10;;
72635;SDS011;60679;48.888;15.544;2023-09-08T09:26:38;5.05;;;2.25;;
72635;SDS011;60679;48.888;15.544;2023-09-08T09:29:06;4.93;;;1.80;;
72635;SDS011;60679;48.888;15.544;2023-09-08T09:31:40;5.20;;;2.45;;
72635;SDS011;60679;48.888;15.544;2023-09-08T09:34:16;6.33;;;2.20;;
72635;SDS011;60679;48.888;15.544;2023-09-08T09:36:42;6.00;;;2.20;;
72635;SDS011;60679;48.888;15.544;2023-09-08T09:39:10;5.28;;;2.33;;
72635;SDS011;60679;48.888;15.544;2023-09-08T09:41:37;5.80;;;2.50;;
72635;SDS011;60679;48.888;15.544;2023-09-08T09:44:02;5.43;;;2.50;;
72635;SDS011;60679;48.888;15.544;2023-09-08T09:46:28;6.37;;;2.43;;
72635;SDS011;60679;48.888;15.544;2023-09-08T09:48:54;4.87;;;1.90;;
72635;SDS011;60679;48.888;15.544;2023-09-08T09:51:21;6.20;;;2.65;;
72635;SDS011;60679;48.888;15.544;2023-09-08T09:53:49;5.83;;;2.50;;
72635;SDS011;60679;48.888;15.544;2023-09-08T09:56:15;5.82;;;2.75;;
72635;SDS011;60679;48.888;15.544;2023-09-08T09:58:42;7.32;;;2.60;;
72635;SDS011;60679;48.888;15.544;2023-09-08T10:01:08;6.25;;;2.53;;
72635;SDS011;60679;48.888;15.544;2023-09-08T10:03:37;6.40;;;2.50;;
72635;SDS011;60679;48.888;15.544;2023-09-08T10:06:04;4.90;;;2.22;;
72635;SDS011;60679;48.888;15.544;2023-09-08T10:08:31;5.05;;;2.63;;
72635;SDS011;60679;48.888;15.544;2023-09-08T10:11:05;6.07;;;2.33;;
72635;SDS011;60679;48.888;15.544;2023-09-08T10:13:33;6.63;;;2.63;;
72635;SDS011;60679;48.888;15.544;2023-09-08T10:16:05;7.87;;;2.20;;
72635;SDS011;60679;48.888;15.544;2023-09-08T10:18:33;5.38;;;2.13;;
72635;SDS011;60679;48.888;15.544;2023-09-08T10:21:00;5.43;;;2.33;;
72635;SDS011;60679;48.888;15.544;2023-09-08T10:23:38;5.22;;;2.10;;
72635;SDS011;60679;48.888;15.544;2023-09-08T10:26:11;4.72;;;2.30;;
72635;SDS011;60679;48.888;15.544;2023-09-08T10:28:40;5.27;;;2.10;;
72635;SDS011;60679;48.888;15.544;2023-09-08T10:31:06;4.63;;;2.05;;
72635;SDS011;60679;48.888;15.544;2023-09-08T10:33:36;5.32;;;2.78;;
72635;SDS011;60679;48.888;15.544;2023-09-08T10:36:03;5.32;;;2.40;;
72635;SDS011;60679;48.888;15.544;2023-09-08T10:38:33;5.63;;;2.13;;
72635;SDS011;60679;48.888;15.544;2023-09-08T10:43:40;5.43;;;2.35;;
72635;SDS011;60679;48.888;15.544;2023-09-08T10:46:09;5.80;;;2.10;;
72635;SDS011;60679;48.888;15.544;2023-09-08T10:48:42;5.57;;;2.50;;
72635;SDS011;60679;48.888;15.544;2023-09-08T10:51:15;4.50;;;1.70;;
72635;SDS011;60679;48.888;15.544;2023-09-08T10:53:42;5.07;;;2.20;;
72635;SDS011;60679;48.888;15.544;2023-09-08T10:56:11;6.55;;;2.15;;
72635;SDS011;60679;48.888;15.544;2023-09-08T10:58:37;4.93;;;2.20;;
72635;SDS011;60679;48.888;15.544;2023-09-08T11:01:13;5.07;;;2.10;;
72635;SDS011;60679;48.888;15.544;2023-09-08T11:06:07;6.60;;;2.27;;
72635;SDS011;60679;48.888;15.544;2023-09-08T11:08:37;4.80;;;1.98;;
72635;SDS011;60679;48.888;15.544;2023-09-08T11:11:06;5.05;;;2.05;;
72635;SDS011;60679;48.888;15.544;2023-09-08T11:13:31;6.10;;;2.30;;
72635;SDS011;60679;48.888;15.544;2023-09-08T11:15:57;4.90;;;2.30;;
72635;SDS011;60679;48.888;15.544;2023-09-08T11:18:26;4.97;;;1.90;;
72635;SDS011;60679;48.888;15.544;2023-09-08T11:20:52;5.35;;;2.35;;
72635;SDS011;60679;48.888;15.544;2023-09-08T11:23:18;5.90;;;2.17;;
72635;SDS011;60679;48.888;15.544;2023-09-08T11:25:45;7.93;;;2.10;;
72635;SDS011;60679;48.888;15.544;2023-09-08T11:28:11;5.38;;;1.85;;
72635;SDS011;60679;48.888;15.544;2023-09-08T11:30:37;10.85;;;2.45;;
72635;SDS011;60679;48.888;15.544;2023-09-08T11:33:02;4.97;;;2.20;;
72635;SDS011;60679;48.888;15.544;2023-09-08T11:35:28;5.70;;;2.38;;
72635;SDS011;60679;48.888;15.544;2023-09-08T11:37:58;5.30;;;2.17;;
72635;SDS011;60679;48.888;15.544;2023-09-08T11:40:26;5.22;;;2.15;;
72635;SDS011;60679;48.888;15.544;2023-09-08T11:42:53;6.43;;;2.30;;
72635;SDS011;60679;48.888;15.544;2023-09-08T11:45:18;5.07;;;2.30;;
72635;SDS011;60679;48.888;15.544;2023-09-08T11:47:48;4.85;;;2.20;;
72635;SDS011;60679;48.888;15.544;2023-09-08T11:50:18;6.73;;;2.40;;
72635;SDS011;60679;48.888;15.544;2023-09-08T11:52:44;5.75;;;2.30;;
72635;SDS011;60679;48.888;15.544;2023-09-08T11:55:12;7.03;;;2.40;;
72635;SDS011;60679;48.888;15.544;2023-09-08T11:57:38;4.85;;;1.80;;
72635;SDS011;60679;48.888;15.544;2023-09-08T12:00:05;4.60;;;2.08;;
72635;SDS011;60679;48.888;15.544;2023-09-08T12:02:34;5.40;;;1.70;;
72635;SDS011;60679;48.888;15.544;2023-09-08T12:05:00;6.32;;;1.80;;
72635;SDS011;60679;48.888;15.544;2023-09-08T12:07:26;5.35;;;2.53;;
72635;SDS011;60679;48.888;15.544;2023-09-08T12:09:52;5.37;;;2.50;;
72635;SDS011;60679;48.888;15.544;2023-09-08T12:12:17;7.37;;;2.20;;
72635;SDS011;60679;48.888;15.544;2023-09-08T12:14:43;5.60;;;3.00;;
72635;SDS011;60679;48.888;15.544;2023-09-08T12:17:08;5.30;;;2.30;;
72635;SDS011;60679;48.888;15.544;2023-09-08T12:19:34;4.72;;;2.03;;
72635;SDS011;60679;48.888;15.544;2023-09-08T12:22:04;5.15;;;2.38;;
72635;SDS011;60679;48.888;15.544;2023-09-08T12:27:21;5.38;;;2.38;;
72635;SDS011;60679;48.888;15.544;2023-09-08T12:30:00;6.30;;;2.40;;
72635;SDS011;60679;48.888;15.544;2023-09-08T12:32:28;4.85;;;1.90;;
72635;SDS011;60679;48.888;15.544;2023-09-08T12:34:54;4.93;;;2.40;;
72635;SDS011;60679;48.888;15.544;2023-09-08T12:37:21;4.70;;;1.90;;
72635;SDS011;60679;48.888;15.544;2023-09-08T12:39:52;5.65;;;2.08;;
72635;SDS011;60679;48.888;15.544;2023-09-08T12:42:18;5.10;;;2.13;;
72635;SDS011;60679;48.888;15.544;2023-09-08T12:44:44;6.40;;;2.10;;
72635;SDS011;60679;48.888;15.544;2023-09-08T12:47:10;5.68;;;2.10;;
72635;SDS011;60679;48.888;15.544;2023-09-08T12:49:39;4.65;;;1.95;;
72635;SDS011;60679;48.888;15.544;2023-09-08T12:52:05;5.43;;;2.27;;
72635;SDS011;60679;48.888;15.544;2023-09-08T12:54:31;7.82;;;2.10;;
72635;SDS011;60679;48.888;15.544;2023-09-08T12:56:57;5.67;;;2.30;;
72635;SDS011;60679;48.888;15.544;2023-09-08T12:59:22;5.10;;;2.10;;
72635;SDS011;60679;48.888;15.544;2023-09-08T13:01:48;4.73;;;2.20;;
72635;SDS011;60679;48.888;15.544;2023-09-08T13:04:13;5.57;;;2.27;;
72635;SDS011;60679;48.888;15.544;2023-09-08T13:06:39;5.07;;;2.10;;
72635;SDS011;60679;48.888;15.544;2023-09-08T13:09:05;5.17;;;2.33;;
72635;SDS011;60679;48.888;15.544;2023-09-08T13:11:30;5.43;;;2.10;;
72635;SDS011;60679;48.888;15.544;2023-09-08T13:13:56;5.63;;;2.28;;
72635;SDS011;60679;48.888;15.544;2023-09-08T13:16:21;10.80;;;2.20;;
72635;SDS011;60679;48.888;15.544;2023-09-08T13:18:47;4.97;;;2.10;;
72635;SDS011;60679;48.888;15.544;2023-09-08T13:21:14;4.90;;;2.33;;
72635;SDS011;60679;48.888;15.544;2023-09-08T13:23:39;5.97;;;2.23;;
72635;SDS011;60679;48.888;15.544;2023-09-08T13:26:05;4.57;;;2.00;;
72635;SDS011;60679;48.888;15.544;2023-09-08T13:28:30;4.72;;;1.90;;
72635;SDS011;60679;48.888;15.544;2023-09-08T13:30:55;4.40;;;1.83;;
72635;SDS011;60679;48.888;15.544;2023-09-08T13:33:21;4.93;;;1.87;;
72635;SDS011;60679;48.888;15.544;2023-09-08T13:35:47;4.80;;;1.67;;
72635;SDS011;60679;48.888;15.544;2023-09-08T13:38:13;4.40;;;2.00;;
72635;SDS011;60679;48.888;15.544;2023-09-08T13:40:38;5.27;;;2.33;;
72635;SDS011;60679;48.888;15.544;2023-09-08T13:43:03;6.03;;;2.33;;
72635;SDS011;60679;48.888;15.544;2023-09-08T13:45:29;4.50;;;1.73;;
72635;SDS011;60679;48.888;15.544;2023-09-08T13:47:54;6.17;;;2.23;;
72635;SDS011;60679;48.888;15.544;2023-09-08T13:50:20;8.77;;;2.30;;
72635;SDS011;60679;48.888;15.544;2023-09-08T13:52:48;4.50;;;1.70;;
72635;SDS011;60679;48.888;15.544;2023-09-08T13:55:14;4.70;;;2.10;;
72635;SDS011;60679;48.888;15.544;2023-09-08T13:57:39;5.47;;;2.13;;
72635;SDS011;60679;48.888;15.544;2023-09-08T14:00:05;5.47;;;2.10;;
72635;SDS011;60679;48.888;15.544;2023-09-08T14:02:33;4.65;;;1.83;;
72635;SDS011;60679;48.888;15.544;2023-09-08T14:04:58;4.47;;;1.73;;
72635;SDS011;60679;48.888;15.544;2023-09-08T14:07:24;5.47;;;2.30;;
72635;SDS011;60679;48.888;15.544;2023-09-08T14:09:49;5.10;;;1.85;;
72635;SDS011;60679;48.888;15.544;2023-09-08T14:12:15;8.80;;;3.80;;
72635;SDS011;60679;48.888;15.544;2023-09-08T14:14:40;7.10;;;1.70;;
72635;SDS011;60679;48.888;15.544;2023-09-08T14:17:06;4.87;;;2.00;;
72635;SDS011;60679;48.888;15.544;2023-09-08T14:19:31;5.13;;;1.88;;
72635;SDS011;60679;48.888;15.544;2023-09-08T14:21:56;5.50;;;2.07;;
72635;SDS011;60679;48.888;15.544;2023-09-08T14:24:22;4.93;;;2.07;;
72635;SDS011;60679;48.888;15.544;2023-09-08T14:26:48;6.63;;;2.30;;
72635;SDS011;60679;48.888;15.544;2023-09-08T14:29:16;4.47;;;1.60;;
72635;SDS011;60679;48.888;15.544;2023-09-08T14:31:41;4.93;;;1.80;;
72635;SDS011;60679;48.888;15.544;2023-09-08T14:34:08;4.93;;;1.80;;
72635;SDS011;60679;48.888;15.544;2023-09-08T14:36:33;7.47;;;2.00;;
72635;SDS011;60679;48.888;15.544;2023-09-08T14:38:59;5.90;;;2.30;;
72635;SDS011;60679;48.888;15.544;2023-09-08T14:41:24;5.45;;;2.10;;